Time,TemperatureF,DewpointF,PressureIn,WindDirection,WindDirectionDegrees,WindSpeedMPH,WindSpeedGustMPH,Humidity,HourlyPrecipIn,Conditions,Clouds,dailyrainin,SoftwareType,DateUTC
2013-02-28 00:02:00,41.5,11.7,27.58,SE,135,0.0,2.7,29,0.00,,---,0.00,VWS V14.01,2013-02-28 07:02:00,
2013-02-28 00:08:00,41.2,11.4,27.58,ESE,112,0.0,2.2,29,0.00,,---,0.00,VWS V14.01,2013-02-28 07:08:00,
2013-02-28 00:13:00,41.2,11.4,27.58,ESE,112,2.7,2.7,29,0.00,,---,0.00,VWS V14.01,2013-02-28 07:13:00,
2013-02-28 00:18:00,41.0,11.2,27.58,SSE,158,2.7,3.1,29,0.00,,---,0.00,VWS V14.01,2013-02-28 07:18:00,
2013-02-28 00:23:00,41.0,11.2,27.58,SSW,202,3.6,3.6,29,0.00,,---,0.00,VWS V14.01,2013-02-28 07:23:00,
2013-02-28 00:28:00,41.0,11.2,27.58,SSW,202,2.7,2.7,29,0.00,,---,0.00,VWS V14.01,2013-02-28 07:28:00,
2013-02-28 00:33:00,41.0,11.2,27.58,South,180,4.0,4.9,29,0.00,,---,0.00,VWS V14.01,2013-02-28 07:33:00,
2013-02-28 00:38:00,41.4,11.5,27.58,South,180,3.1,3.6,29,0.00,,---,0.00,VWS V14.01,2013-02-28 07:38:00,
2013-02-28 00:43:00,41.7,11.8,27.55,SSE,158,4.0,4.0,29,0.00,,---,0.00,VWS V14.01,2013-02-28 07:43:00,
2013-02-28 00:48:00,42.1,12.1,27.55,SSW,202,4.9,4.9,29,0.00,,---,0.00,VWS V14.01,2013-02-28 07:48:00,
2013-02-28 00:53:00,42.3,11.5,27.55,SSE,158,3.1,4.0,28,0.00,,---,0.00,VWS V14.01,2013-02-28 07:53:00,
2013-02-28 00:59:00,42.6,11.8,27.55,SSW,202,4.0,4.0,28,0.00,,---,0.00,VWS V14.01,2013-02-28 07:59:00,
2013-02-28 01:04:00,42.4,11.7,27.55,South,180,0.0,3.1,28,0.00,,---,0.00,VWS V14.01,2013-02-28 08:04:00,
2013-02-28 01:09:00,42.1,11.3,27.55,NNW,338,0.0,0.0,28,0.00,,---,0.00,VWS V14.01,2013-02-28 08:09:00,
2013-02-28 01:14:00,41.9,11.2,27.58,NNE,22,0.0,2.2,28,0.00,,---,0.00,VWS V14.01,2013-02-28 08:14:00,
2013-02-28 01:19:00,41.0,11.2,27.58,ENE,68,0.0,3.1,29,0.00,,---,0.00,VWS V14.01,2013-02-28 08:19:00,
2013-02-28 01:24:00,40.3,10.6,27.58,ESE,112,2.7,2.7,29,0.00,,---,0.00,VWS V14.01,2013-02-28 08:24:00,
2013-02-28 01:29:00,39.7,10.1,27.55,ESE,112,0.0,2.7,29,0.00,,---,0.00,VWS V14.01,2013-02-28 08:29:00,
2013-02-28 01:34:00,39.2,9.6,27.55,ESE,112,0.0,0.0,29,0.00,,---,0.00,VWS V14.01,2013-02-28 08:34:00,
2013-02-28 01:39:00,38.1,9.4,27.55,ESE,112,0.0,0.0,30,0.00,,---,0.00,VWS V14.01,2013-02-28 08:39:00,
2013-02-28 01:44:00,37.8,9.1,27.55,ESE,112,0.0,0.0,30,0.00,,---,0.00,VWS V14.01,2013-02-28 08:44:00,
2013-02-28 01:49:00,37.4,9.5,27.55,ESE,112,0.0,0.0,31,0.00,,---,0.00,VWS V14.01,2013-02-28 08:49:00,
2013-02-28 01:54:00,36.9,9.8,27.55,ESE,112,0.0,0.0,32,0.00,,---,0.00,VWS V14.01,2013-02-28 08:54:00,
2013-02-28 01:59:00,36.9,9.8,27.55,ESE,112,0.0,0.0,32,0.00,,---,0.00,VWS V14.01,2013-02-28 08:59:00,
2013-02-28 02:04:00,37.2,10.8,27.55,ESE,112,0.0,0.0,33,0.00,,---,0.00,VWS V14.01,2013-02-28 09:04:00,
2013-02-28 02:09:00,36.9,10.5,27.55,NNW,338,0.0,0.0,33,0.00,,---,0.00,VWS V14.01,2013-02-28 09:09:00,
2013-02-28 02:15:00,36.1,9.8,27.58,NNW,338,0.0,0.0,33,0.00,,---,0.00,VWS V14.01,2013-02-28 09:15:00,
2013-02-28 02:20:00,36.1,10.5,27.58,NNW,338,0.0,0.0,34,0.00,,---,0.00,VWS V14.01,2013-02-28 09:20:00,
2013-02-28 02:25:00,35.8,10.8,27.58,SSW,202,0.0,0.0,35,0.00,,---,0.00,VWS V14.01,2013-02-28 09:25:00,
2013-02-28 02:30:00,35.1,11.4,27.55,SSW,202,0.0,0.0,37,0.00,,---,0.00,VWS V14.01,2013-02-28 09:30:00,
2013-02-28 02:35:00,34.3,11.4,27.55,SSW,202,0.0,0.0,38,0.00,,---,0.00,VWS V14.01,2013-02-28 09:35:00,
2013-02-28 02:40:00,34.0,12.2,27.55,SSW,202,0.0,0.0,40,0.00,,---,0.00,VWS V14.01,2013-02-28 09:40:00,
2013-02-28 02:45:00,33.8,12.6,27.58,SSW,202,0.0,0.0,41,0.00,,---,0.00,VWS V14.01,2013-02-28 09:45:00,
2013-02-28 02:50:00,33.8,12.6,27.58,SSE,158,2.2,2.2,41,0.00,,---,0.00,VWS V14.01,2013-02-28 09:50:00,
2013-02-28 02:55:00,33.8,13.1,27.58,SE,135,0.0,0.0,42,0.00,,---,0.00,VWS V14.01,2013-02-28 09:55:00,
2013-02-28 03:00:00,33.6,13.0,27.55,SE,135,0.0,0.0,42,0.00,,---,0.00,VWS V14.01,2013-02-28 10:00:00,
2013-02-28 03:05:00,33.4,13.4,27.55,SE,135,0.0,0.0,43,0.00,,---,0.00,VWS V14.01,2013-02-28 10:05:00,
2013-02-28 03:11:00,33.6,13.5,27.55,SE,135,2.2,2.2,43,0.00,,---,0.00,VWS V14.01,2013-02-28 10:11:00,
2013-02-28 03:16:00,33.4,13.9,27.55,SE,135,0.0,0.0,44,0.00,,---,0.00,VWS V14.01,2013-02-28 10:16:00,
2013-02-28 03:21:00,33.3,13.2,27.55,SE,135,0.0,0.0,43,0.00,,---,0.00,VWS V14.01,2013-02-28 10:21:00,
2013-02-28 03:26:00,33.4,13.4,27.55,SE,135,0.0,0.0,43,0.00,,---,0.00,VWS V14.01,2013-02-28 10:26:00,
2013-02-28 03:31:00,33.3,13.2,27.55,East,90,0.0,0.0,43,0.00,,---,0.00,VWS V14.01,2013-02-28 10:31:00,
2013-02-28 03:36:00,33.3,13.2,27.55,East,90,0.0,0.0,43,0.00,,---,0.00,VWS V14.01,2013-02-28 10:36:00,
2013-02-28 03:41:00,32.9,12.9,27.55,East,90,0.0,0.0,43,0.00,,---,0.00,VWS V14.01,2013-02-28 10:41:00,
2013-02-28 03:46:00,33.3,13.7,27.55,ESE,112,2.2,2.7,44,0.00,,---,0.00,VWS V14.01,2013-02-28 10:46:00,
2013-02-28 03:51:00,33.6,13.5,27.55,SE,135,2.2,2.2,43,0.00,,---,0.00,VWS V14.01,2013-02-28 10:51:00,
2013-02-28 03:56:00,33.4,12.8,27.58,SE,135,0.0,0.0,42,0.00,,---,0.00,VWS V14.01,2013-02-28 10:56:00,
2013-02-28 04:02:00,33.3,12.7,27.58,SE,135,0.0,0.0,42,0.00,,---,0.00,VWS V14.01,2013-02-28 11:02:00,
2013-02-28 04:07:00,33.3,13.2,27.58,SE,135,0.0,0.0,43,0.00,,---,0.00,VWS V14.01,2013-02-28 11:07:00,
2013-02-28 04:12:00,33.1,13.0,27.58,SE,135,0.0,0.0,43,0.00,,---,0.00,VWS V14.01,2013-02-28 11:12:00,
2013-02-28 04:17:00,33.3,13.2,27.58,SE,135,0.0,0.0,43,0.00,,---,0.00,VWS V14.01,2013-02-28 11:17:00,
2013-02-28 04:22:00,32.9,12.9,27.58,SE,135,0.0,0.0,43,0.00,,---,0.00,VWS V14.01,2013-02-28 11:22:00,
2013-02-28 04:27:00,32.7,12.7,27.55,SE,135,0.0,0.0,43,0.00,,---,0.00,VWS V14.01,2013-02-28 11:27:00,
2013-02-28 04:32:00,32.5,12.5,27.55,SE,135,0.0,0.0,43,0.00,,---,0.00,VWS V14.01,2013-02-28 11:32:00,
2013-02-28 04:37:00,32.7,13.2,27.55,SE,135,0.0,0.0,44,0.00,,---,0.00,VWS V14.01,2013-02-28 11:37:00,
2013-02-28 04:42:00,32.5,13.1,27.58,SE,135,0.0,0.0,44,0.00,,---,0.00,VWS V14.01,2013-02-28 11:42:00,
2013-02-28 04:47:00,32.5,13.1,27.58,SE,135,0.0,0.0,44,0.00,,---,0.00,VWS V14.01,2013-02-28 11:47:00,
2013-02-28 04:52:00,32.7,13.7,27.58,South,180,0.0,0.0,45,0.00,,---,0.00,VWS V14.01,2013-02-28 11:52:00,
2013-02-28 04:57:00,31.8,12.9,27.58,South,180,0.0,0.0,45,0.00,,---,0.00,VWS V14.01,2013-02-28 11:57:00,
2013-02-28 05:03:00,31.5,13.1,27.58,South,180,0.0,0.0,46,0.00,,---,0.00,VWS V14.01,2013-02-28 12:03:00,
2013-02-28 05:08:00,31.8,13.9,27.58,South,180,0.0,0.0,47,0.00,,---,0.00,VWS V14.01,2013-02-28 12:08:00,
2013-02-28 05:13:00,31.1,13.2,27.58,SSE,158,0.0,0.0,47,0.00,,---,0.00,VWS V14.01,2013-02-28 12:13:00,
2013-02-28 05:18:00,30.9,13.6,27.58,SSE,158,0.0,0.0,48,0.00,,---,0.00,VWS V14.01,2013-02-28 12:18:00,
2013-02-28 05:23:00,30.6,14.1,27.58,SSE,158,0.0,0.0,50,0.00,,---,0.00,VWS V14.01,2013-02-28 12:23:00,
2013-02-28 05:28:00,30.4,14.0,27.58,SSE,158,0.0,0.0,50,0.00,,---,0.00,VWS V14.01,2013-02-28 12:28:00,
2013-02-28 05:33:00,30.2,14.3,27.58,SSE,158,0.0,0.0,51,0.00,,---,0.00,VWS V14.01,2013-02-28 12:33:00,
2013-02-28 05:38:00,30.2,14.7,27.58,SSE,158,0.0,0.0,52,0.00,,---,0.00,VWS V14.01,2013-02-28 12:38:00,
2013-02-28 05:43:00,29.7,14.2,27.61,SSE,158,0.0,0.0,52,0.00,,---,0.00,VWS V14.01,2013-02-28 12:43:00,
2013-02-28 05:48:00,29.3,13.9,27.61,SSE,158,0.0,0.0,52,0.00,,---,0.00,VWS V14.01,2013-02-28 12:48:00,
2013-02-28 05:53:00,29.5,14.5,27.61,SSE,158,0.0,0.0,53,0.00,,---,0.00,VWS V14.01,2013-02-28 12:53:00,
2013-02-28 05:59:00,29.1,14.1,27.58,SSE,158,0.0,0.0,53,0.00,,---,0.00,VWS V14.01,2013-02-28 12:59:00,
2013-02-28 06:04:00,29.5,14.9,27.58,SSE,158,0.0,0.0,54,0.00,,---,0.00,VWS V14.01,2013-02-28 13:04:00,
2013-02-28 06:09:00,29.8,15.2,27.58,SSE,158,0.0,0.0,54,0.00,,---,0.00,VWS V14.01,2013-02-28 13:09:00,
2013-02-28 06:14:00,29.7,14.6,27.61,SSE,158,0.0,0.0,53,0.00,,---,0.00,VWS V14.01,2013-02-28 13:14:00,
2013-02-28 06:19:00,29.3,14.3,27.61,SE,135,0.0,0.0,53,0.00,,---,0.00,VWS V14.01,2013-02-28 13:19:00,
2013-02-28 06:24:00,29.3,14.3,27.61,SE,135,0.0,0.0,53,0.00,,---,0.00,VWS V14.01,2013-02-28 13:24:00,
2013-02-28 06:29:00,28.9,14.0,27.61,SE,135,0.0,0.0,53,0.00,,---,0.00,VWS V14.01,2013-02-28 13:29:00,
2013-02-28 06:34:00,28.9,13.5,27.61,SE,135,0.0,0.0,52,0.00,,---,0.00,VWS V14.01,2013-02-28 13:34:00,
2013-02-28 06:39:00,29.3,14.3,27.61,SE,135,0.0,0.0,53,0.00,,---,0.00,VWS V14.01,2013-02-28 13:39:00,
2013-02-28 06:45:00,29.5,14.5,27.61,SE,135,0.0,0.0,53,0.00,,---,0.00,VWS V14.01,2013-02-28 13:45:00,
2013-02-28 06:50:00,29.3,14.3,27.61,SE,135,0.0,0.0,53,0.00,,---,0.00,VWS V14.01,2013-02-28 13:50:00,
2013-02-28 06:55:00,29.3,14.3,27.61,SE,135,0.0,0.0,53,0.00,,---,0.00,VWS V14.01,2013-02-28 13:55:00,
2013-02-28 07:00:00,29.5,14.9,27.61,SE,135,0.0,0.0,54,0.00,,---,0.00,VWS V14.01,2013-02-28 14:00:00,
2013-02-28 07:05:00,30.7,15.6,27.61,North,0,2.7,2.7,53,0.00,,---,0.00,VWS V14.01,2013-02-28 14:05:00,
2013-02-28 07:10:00,30.4,14.9,27.61,North,0,0.0,0.0,52,0.00,,---,0.00,VWS V14.01,2013-02-28 14:10:00,
2013-02-28 07:15:00,30.0,14.5,27.61,North,0,0.0,0.0,52,0.00,,---,0.00,VWS V14.01,2013-02-28 14:15:00,
2013-02-28 07:20:00,30.6,15.0,27.61,ENE,68,0.0,0.0,52,0.00,,---,0.00,VWS V14.01,2013-02-28 14:20:00,
2013-02-28 07:25:00,31.5,15.9,27.61,ENE,68,0.0,0.0,52,0.00,,---,0.00,VWS V14.01,2013-02-28 14:25:00,
2013-02-28 07:30:00,32.2,16.5,27.64,ENE,68,0.0,0.0,52,0.00,,---,0.00,VWS V14.01,2013-02-28 14:30:00,
2013-02-28 07:35:00,33.1,16.9,27.64,ENE,68,0.0,0.0,51,0.00,,---,0.00,VWS V14.01,2013-02-28 14:35:00,
2013-02-28 07:40:00,34.3,17.6,27.64,ESE,112,0.0,0.0,50,0.00,,---,0.00,VWS V14.01,2013-02-28 14:40:00,
2013-02-28 07:45:00,35.6,16.9,27.61,ESE,112,0.0,0.0,46,0.00,,---,0.00,VWS V14.01,2013-02-28 14:45:00,
2013-02-28 07:50:00,36.9,17.0,27.61,ESE,112,0.0,0.0,44,0.00,,---,0.00,VWS V14.01,2013-02-28 14:50:00,
2013-02-28 07:55:00,37.9,16.4,27.61,East,90,0.0,0.0,41,0.00,,---,0.00,VWS V14.01,2013-02-28 14:55:00,
2013-02-28 08:00:00,39.4,16.5,27.64,ESE,112,0.0,0.0,39,0.00,,---,0.00,VWS V14.01,2013-02-28 15:00:00,
2013-02-28 08:05:00,40.1,17.1,27.64,East,90,0.0,0.0,39,0.00,,---,0.00,VWS V14.01,2013-02-28 15:05:00,
2013-02-28 08:10:00,41.0,17.4,27.64,ENE,68,0.0,2.7,38,0.00,,---,0.00,VWS V14.01,2013-02-28 15:10:00,
2013-02-28 08:16:00,41.7,17.4,27.64,SE,135,3.1,3.1,37,0.00,,---,0.00,VWS V14.01,2013-02-28 15:16:00,
2013-02-28 08:21:00,42.1,16.4,27.64,ESE,112,0.0,3.6,35,0.00,,---,0.00,VWS V14.01,2013-02-28 15:21:00,
2013-02-28 08:26:00,42.3,15.9,27.64,SSW,202,0.0,0.0,34,0.00,,---,0.00,VWS V14.01,2013-02-28 15:26:00,
2013-02-28 08:31:00,44.1,16.8,27.64,SE,135,2.7,2.7,33,0.00,,---,0.00,VWS V14.01,2013-02-28 15:31:00,
2013-02-28 08:36:00,45.0,16.9,27.64,SE,135,2.7,2.7,32,0.00,,---,0.00,VWS V14.01,2013-02-28 15:36:00,
2013-02-28 08:41:00,45.0,16.2,27.64,ESE,112,4.5,4.5,31,0.00,,---,0.00,VWS V14.01,2013-02-28 15:41:00,
2013-02-28 08:46:00,45.3,15.7,27.64,ESE,112,3.6,3.6,30,0.00,,---,0.00,VWS V14.01,2013-02-28 15:46:00,
2013-02-28 08:51:00,46.0,16.4,27.64,SSW,202,0.0,0.0,30,0.00,,---,0.00,VWS V14.01,2013-02-28 15:51:00,
2013-02-28 08:56:00,46.8,16.2,27.64,ESE,112,4.0,4.0,29,0.00,,---,0.00,VWS V14.01,2013-02-28 15:56:00,
2013-02-28 09:01:00,46.9,16.4,27.64,ESE,112,2.7,2.7,29,0.00,,---,0.00,VWS V14.01,2013-02-28 16:01:00,
2013-02-28 09:06:00,47.7,17.0,27.64,SE,135,0.0,2.2,29,0.00,,---,0.00,VWS V14.01,2013-02-28 16:06:00,
2013-02-28 09:11:00,48.2,16.6,27.64,ESE,112,0.0,0.0,28,0.00,,---,0.00,VWS V14.01,2013-02-28 16:11:00,
2013-02-28 09:17:00,48.9,17.3,27.64,WSW,248,0.0,3.6,28,0.00,,---,0.00,VWS V14.01,2013-02-28 16:17:00,
2013-02-28 09:22:00,49.3,16.7,27.64,SSW,202,2.2,4.0,27,0.00,,---,0.00,VWS V14.01,2013-02-28 16:22:00,
2013-02-28 09:27:00,50.0,17.4,27.64,West,270,2.2,2.7,27,0.00,,---,0.00,VWS V14.01,2013-02-28 16:27:00,
2013-02-28 09:32:00,49.6,17.0,27.64,South,180,2.7,2.7,27,0.00,,---,0.00,VWS V14.01,2013-02-28 16:32:00,
2013-02-28 09:37:00,50.7,18.0,27.64,WNW,292,4.0,4.0,27,0.00,,---,0.00,VWS V14.01,2013-02-28 16:37:00,
2013-02-28 09:42:00,50.5,17.8,27.67,WNW,292,4.0,4.0,27,0.00,,---,0.00,VWS V14.01,2013-02-28 16:42:00,
2013-02-28 09:47:00,50.5,17.0,27.67,WSW,248,4.9,4.9,26,0.00,,---,0.00,VWS V14.01,2013-02-28 16:47:00,
2013-02-28 09:52:00,51.1,17.4,27.67,WNW,292,2.7,3.6,26,0.00,,---,0.00,VWS V14.01,2013-02-28 16:52:00,
2013-02-28 09:57:00,51.3,17.6,27.64,West,270,2.7,4.0,26,0.00,,---,0.00,VWS V14.01,2013-02-28 16:57:00,
2013-02-28 10:02:00,52.0,18.2,27.64,WNW,292,2.7,4.0,26,0.00,,---,0.00,VWS V14.01,2013-02-28 17:02:00,
2013-02-28 10:08:00,52.7,16.0,27.64,WNW,292,3.6,3.6,23,0.00,,---,0.00,VWS V14.01,2013-02-28 17:08:00,
2013-02-28 10:13:00,53.8,16.9,27.64,West,270,0.0,2.7,23,0.00,,---,0.00,VWS V14.01,2013-02-28 17:13:00,
2013-02-28 10:18:00,54.1,17.2,27.64,West,270,2.2,2.2,23,0.00,,---,0.00,VWS V14.01,2013-02-28 17:18:00,
2013-02-28 10:23:00,54.0,17.0,27.64,NW,315,3.6,3.6,23,0.00,,---,0.00,VWS V14.01,2013-02-28 17:23:00,
2013-02-28 10:28:00,54.7,17.6,27.64,WNW,292,2.2,3.6,23,0.00,,---,0.00,VWS V14.01,2013-02-28 17:28:00,
2013-02-28 10:33:00,55.9,17.7,27.64,NW,315,2.7,2.7,22,0.00,,---,0.00,VWS V14.01,2013-02-28 17:33:00,
2013-02-28 10:38:00,56.8,18.4,27.64,WSW,248,3.1,3.1,22,0.00,,---,0.00,VWS V14.01,2013-02-28 17:38:00,
2013-02-28 10:43:00,55.6,17.4,27.64,NW,315,0.0,0.0,22,0.00,,---,0.00,VWS V14.01,2013-02-28 17:43:00,
2013-02-28 10:49:00,58.5,19.8,27.64,WSW,248,4.0,4.0,22,0.00,,---,0.00,VWS V14.01,2013-02-28 17:49:00,
2013-02-28 10:54:00,58.1,19.5,27.64,West,270,3.6,3.6,22,0.00,,---,0.00,VWS V14.01,2013-02-28 17:54:00,
2013-02-28 10:59:00,57.4,18.9,27.64,ENE,68,3.1,3.1,22,0.00,,---,0.00,VWS V14.01,2013-02-28 17:59:00,
2013-02-28 11:04:00,58.6,19.9,27.64,ENE,68,2.2,3.1,22,0.00,,---,0.00,VWS V14.01,2013-02-28 18:04:00,
2013-02-28 11:09:00,59.4,20.5,27.64,North,0,2.7,3.6,22,0.00,,---,0.00,VWS V14.01,2013-02-28 18:09:00,
2013-02-28 11:14:00,61.2,20.9,27.64,SE,135,0.0,3.1,21,0.00,,---,0.00,VWS V14.01,2013-02-28 18:14:00,
2013-02-28 11:19:00,60.6,21.6,27.64,North,0,3.1,3.1,22,0.00,,---,0.00,VWS V14.01,2013-02-28 18:19:00,
2013-02-28 11:24:00,60.1,17.7,27.64,NNE,22,2.2,3.6,19,0.00,,---,0.00,VWS V14.01,2013-02-28 18:24:00,
2013-02-28 11:29:00,59.2,17.0,27.64,North,0,2.7,2.7,19,0.00,,---,0.00,VWS V14.01,2013-02-28 18:29:00,
2013-02-28 11:34:00,60.3,17.9,27.64,East,90,2.2,2.7,19,0.00,,---,0.00,VWS V14.01,2013-02-28 18:34:00,
2013-02-28 11:39:00,60.6,18.2,27.64,NNW,338,2.2,2.7,19,0.00,,---,0.00,VWS V14.01,2013-02-28 18:39:00,
2013-02-28 11:44:00,60.6,18.2,27.64,West,270,0.0,0.0,19,0.00,,---,0.00,VWS V14.01,2013-02-28 18:44:00,
2013-02-28 11:49:00,61.3,18.8,27.64,SSW,202,0.0,0.0,19,0.00,,---,0.00,VWS V14.01,2013-02-28 18:49:00,
2013-02-28 11:55:00,60.6,18.2,27.64,NNW,338,3.6,3.6,19,0.00,,---,0.00,VWS V14.01,2013-02-28 18:55:00,
2013-02-28 12:00:00,60.3,17.9,27.61,WNW,292,3.1,4.0,19,0.00,,---,0.00,VWS V14.01,2013-02-28 19:00:00,
2013-02-28 12:05:00,59.9,17.6,27.61,North,0,2.7,3.1,19,0.00,,---,0.00,VWS V14.01,2013-02-28 19:05:00,
2013-02-28 12:10:00,61.7,19.0,27.61,North,0,2.7,3.6,19,0.00,,---,0.00,VWS V14.01,2013-02-28 19:10:00,
2013-02-28 12:15:00,62.1,19.3,27.61,West,270,4.0,4.0,19,0.00,,---,0.00,VWS V14.01,2013-02-28 19:15:00,
2013-02-28 12:20:00,63.1,19.0,27.61,WSW,248,0.0,0.0,18,0.00,,---,0.00,VWS V14.01,2013-02-28 19:20:00,
2013-02-28 12:25:00,63.9,19.6,27.61,NNE,22,2.2,3.1,18,0.00,,---,0.00,VWS V14.01,2013-02-28 19:25:00,
2013-02-28 12:30:00,63.9,19.6,27.61,North,0,2.7,2.7,18,0.00,,---,0.00,VWS V14.01,2013-02-28 19:30:00,
2013-02-28 12:35:00,65.1,20.6,27.61,SSE,158,2.7,2.7,18,0.00,,---,0.00,VWS V14.01,2013-02-28 19:35:00,
2013-02-28 12:40:00,65.8,21.2,27.61,NW,315,0.0,2.2,18,0.00,,---,0.00,VWS V14.01,2013-02-28 19:40:00,
2013-02-28 12:45:00,66.7,20.6,27.61,NW,315,0.0,0.0,17,0.00,,---,0.00,VWS V14.01,2013-02-28 19:45:00,
2013-02-28 12:50:00,66.9,20.7,27.61,NNW,338,3.1,3.6,17,0.00,,---,0.00,VWS V14.01,2013-02-28 19:50:00,
2013-02-28 12:56:00,66.7,20.6,27.61,North,0,3.6,3.6,17,0.00,,---,0.00,VWS V14.01,2013-02-28 19:56:00,
2013-02-28 13:01:00,66.7,20.6,27.61,NNW,338,4.0,5.8,17,0.00,,---,0.00,VWS V14.01,2013-02-28 20:01:00,
2013-02-28 13:06:00,66.7,20.6,27.61,North,0,3.1,4.0,17,0.00,,---,0.00,VWS V14.01,2013-02-28 20:06:00,
2013-02-28 13:11:00,66.4,20.3,27.61,NNW,338,5.8,5.8,17,0.00,,---,0.00,VWS V14.01,2013-02-28 20:11:00,
2013-02-28 13:16:00,64.4,20.0,27.58,WNW,292,4.0,4.9,18,0.00,,---,0.00,VWS V14.01,2013-02-28 20:16:00,
2013-02-28 13:21:00,65.5,20.9,27.58,NE,45,0.0,3.6,18,0.00,,---,0.00,VWS V14.01,2013-02-28 20:21:00,
2013-02-28 13:26:00,66.9,20.7,27.58,SW,225,0.0,0.0,17,0.00,,---,0.00,VWS V14.01,2013-02-28 20:26:00,
2013-02-28 13:31:00,65.5,20.9,27.58,West,270,3.1,3.1,18,0.00,,---,0.00,VWS V14.01,2013-02-28 20:31:00,
2013-02-28 13:36:00,66.9,20.7,27.58,SSE,158,2.7,3.6,17,0.00,,---,0.00,VWS V14.01,2013-02-28 20:36:00,
2013-02-28 13:41:00,68.4,21.9,27.58,North,0,0.0,2.2,17,0.00,,---,0.00,VWS V14.01,2013-02-28 20:41:00,
2013-02-28 13:46:00,67.1,20.9,27.58,NNW,338,2.7,3.1,17,0.00,,---,0.00,VWS V14.01,2013-02-28 20:46:00,
2013-02-28 13:51:00,68.7,22.2,27.58,WNW,292,3.6,3.6,17,0.00,,---,0.00,VWS V14.01,2013-02-28 20:51:00,
2013-02-28 13:56:00,67.1,20.9,27.58,West,270,4.9,4.9,17,0.00,,---,0.00,VWS V14.01,2013-02-28 20:56:00,
2013-02-28 14:01:00,67.5,21.2,27.58,WNW,292,4.5,5.8,17,0.00,,---,0.00,VWS V14.01,2013-02-28 21:01:00,
2013-02-28 14:06:00,67.6,21.3,27.58,NW,315,5.8,7.2,17,0.00,,---,0.00,VWS V14.01,2013-02-28 21:06:00,
2013-02-28 14:11:00,67.5,21.2,27.58,NNW,338,3.1,3.6,17,0.00,,---,0.00,VWS V14.01,2013-02-28 21:11:00,
2013-02-28 14:16:00,65.7,21.0,27.58,NW,315,5.8,9.6,18,0.00,,---,0.00,VWS V14.01,2013-02-28 21:16:00,
2013-02-28 14:21:00,65.8,21.2,27.58,West,270,9.6,10.5,18,0.00,,---,0.00,VWS V14.01,2013-02-28 21:21:00,
2013-02-28 14:26:00,66.4,20.3,27.58,WNW,292,3.6,5.8,17,0.00,,---,0.00,VWS V14.01,2013-02-28 21:26:00,
2013-02-28 14:31:00,66.0,21.3,27.58,WNW,292,8.3,8.3,18,0.00,,---,0.00,VWS V14.01,2013-02-28 21:31:00,
2013-02-28 14:36:00,65.8,21.2,27.58,NNW,338,7.2,7.2,18,0.00,,---,0.00,VWS V14.01,2013-02-28 21:36:00,
2013-02-28 14:41:00,66.2,20.1,27.58,WNW,292,5.8,7.2,17,0.00,,---,0.00,VWS V14.01,2013-02-28 21:41:00,
2013-02-28 14:46:00,67.1,20.9,27.58,WNW,292,5.8,6.3,17,0.00,,---,0.00,VWS V14.01,2013-02-28 21:46:00,
2013-02-28 14:51:00,65.7,21.0,27.58,West,270,4.0,7.6,18,0.00,,---,0.00,VWS V14.01,2013-02-28 21:51:00,
2013-02-28 14:56:00,66.2,20.1,27.58,WNW,292,4.9,6.3,17,0.00,,---,0.00,VWS V14.01,2013-02-28 21:56:00,
2013-02-28 15:01:00,66.6,20.4,27.58,West,270,7.6,8.3,17,0.00,,---,0.00,VWS V14.01,2013-02-28 22:01:00,
2013-02-28 15:06:00,66.6,20.4,27.58,WNW,292,4.0,5.8,17,0.00,,---,0.00,VWS V14.01,2013-02-28 22:06:00,
2013-02-28 15:11:00,66.9,20.7,27.58,WNW,292,6.3,10.5,17,0.00,,---,0.00,VWS V14.01,2013-02-28 22:11:00,
2013-02-28 15:16:00,67.1,20.9,27.58,West,270,5.8,8.1,17,0.00,,---,0.00,VWS V14.01,2013-02-28 22:16:00,
2013-02-28 15:21:00,67.3,21.0,27.58,WSW,248,3.1,3.6,17,0.00,,---,0.00,VWS V14.01,2013-02-28 22:21:00,
2013-02-28 15:26:00,67.3,21.0,27.58,WNW,292,3.1,5.8,17,0.00,,---,0.00,VWS V14.01,2013-02-28 22:26:00,
2013-02-28 15:31:00,67.6,21.3,27.58,WSW,248,3.6,3.6,17,0.00,,---,0.00,VWS V14.01,2013-02-28 22:31:00,
2013-02-28 15:36:00,67.1,20.9,27.58,WNW,292,5.8,8.1,17,0.00,,---,0.00,VWS V14.01,2013-02-28 22:36:00,
2013-02-28 15:41:00,67.3,21.0,27.58,West,270,7.6,7.6,17,0.00,,---,0.00,VWS V14.01,2013-02-28 22:41:00,
2013-02-28 15:46:00,68.2,21.7,27.58,NNW,338,4.0,5.8,17,0.00,,---,0.00,VWS V14.01,2013-02-28 22:46:00,
2013-02-28 15:51:00,66.9,20.7,27.58,West,270,3.1,4.9,17,0.00,,---,0.00,VWS V14.01,2013-02-28 22:51:00,
2013-02-28 15:56:00,68.0,21.6,27.58,NNW,338,2.2,2.7,17,0.00,,---,0.00,VWS V14.01,2013-02-28 22:56:00,
2013-02-28 16:01:00,67.5,21.2,27.58,WNW,292,6.3,8.3,17,0.00,,---,0.00,VWS V14.01,2013-02-28 23:01:00,
2013-02-28 16:06:00,67.1,20.9,27.58,NW,315,4.9,8.1,17,0.00,,---,0.00,VWS V14.01,2013-02-28 23:06:00,
2013-02-28 16:11:00,67.5,21.2,27.58,West,270,7.2,7.2,17,0.00,,---,0.00,VWS V14.01,2013-02-28 23:11:00,
2013-02-28 16:16:00,67.1,20.9,27.58,WNW,292,2.7,6.3,17,0.00,,---,0.00,VWS V14.01,2013-02-28 23:16:00,
2013-02-28 16:21:00,67.1,20.9,27.58,NW,315,2.7,8.1,17,0.00,,---,0.00,VWS V14.01,2013-02-28 23:21:00,
2013-02-28 16:27:00,67.3,21.0,27.58,WNW,292,4.9,8.1,17,0.00,,---,0.00,VWS V14.01,2013-02-28 23:27:00,
2013-02-28 16:32:00,67.6,21.3,27.58,WNW,292,6.3,8.1,17,0.00,,---,0.00,VWS V14.01,2013-02-28 23:32:00,
2013-02-28 16:37:00,67.5,21.2,27.58,West,270,7.6,8.3,17,0.00,,---,0.00,VWS V14.01,2013-02-28 23:37:00,
2013-02-28 16:42:00,67.1,20.9,27.58,WNW,292,4.9,6.7,17,0.00,,---,0.00,VWS V14.01,2013-02-28 23:42:00,
2013-02-28 16:47:00,67.8,21.5,27.58,WNW,292,3.1,5.4,17,0.00,,---,0.00,VWS V14.01,2013-02-28 23:47:00,
2013-02-28 16:52:00,67.3,21.0,27.58,WSW,248,2.2,5.4,17,0.00,,---,0.00,VWS V14.01,2013-02-28 23:52:00,
2013-02-28 16:57:00,67.3,21.0,27.58,WNW,292,3.1,7.6,17,0.00,,---,0.00,VWS V14.01,2013-02-28 23:57:00,
2013-02-28 17:02:00,67.8,21.5,27.58,NW,315,4.0,4.0,17,0.00,,---,0.00,VWS V14.01,2013-03-01 00:02:00,
2013-02-28 17:07:00,67.1,20.9,27.58,NW,315,4.9,6.3,17,0.00,,---,0.00,VWS V14.01,2013-03-01 00:07:00,
2013-02-28 17:12:00,67.6,21.3,27.58,WNW,292,4.0,4.0,17,0.00,,---,0.00,VWS V14.01,2013-03-01 00:12:00,
2013-02-28 17:17:00,67.3,21.0,27.58,WNW,292,6.3,6.3,17,0.00,,---,0.00,VWS V14.01,2013-03-01 00:17:00,
2013-02-28 17:22:00,67.1,20.9,27.58,WSW,248,2.7,4.0,17,0.00,,---,0.00,VWS V14.01,2013-03-01 00:22:00,
2013-02-28 17:27:00,67.1,20.9,27.58,West,270,5.4,5.4,17,0.00,,---,0.00,VWS V14.01,2013-03-01 00:27:00,
2013-02-28 17:32:00,66.9,20.7,27.58,WNW,292,4.9,6.3,17,0.00,,---,0.00,VWS V14.01,2013-03-01 00:32:00,
2013-02-28 17:38:00,66.7,20.6,27.58,WNW,292,2.7,4.0,17,0.00,,---,0.00,VWS V14.01,2013-03-01 00:38:00,
2013-02-28 17:43:00,66.7,20.6,27.58,WNW,292,4.9,4.9,17,0.00,,---,0.00,VWS V14.01,2013-03-01 00:43:00,
2013-02-28 17:48:00,65.8,21.2,27.58,WNW,292,5.4,7.6,18,0.00,,---,0.00,VWS V14.01,2013-03-01 00:48:00,
2013-02-28 17:53:00,65.5,20.9,27.58,WNW,292,3.1,5.8,18,0.00,,---,0.00,VWS V14.01,2013-03-01 00:53:00,
2013-02-28 17:58:00,64.4,20.0,27.58,WNW,292,3.1,3.1,18,0.00,,---,0.00,VWS V14.01,2013-03-01 00:58:00,
2013-02-28 18:03:00,63.9,19.6,27.58,WNW,292,4.9,9.6,18,0.00,,---,0.00,VWS V14.01,2013-03-01 01:03:00,
2013-02-28 18:08:00,63.5,19.3,27.58,WNW,292,8.3,8.3,18,0.00,,---,0.00,VWS V14.01,2013-03-01 01:08:00,
2013-02-28 18:13:00,62.8,18.7,27.58,WSW,248,7.2,10.5,18,0.00,,---,0.00,VWS V14.01,2013-03-01 01:13:00,
2013-02-28 18:18:00,62.4,19.6,27.58,NNW,338,5.4,5.8,19,0.00,,---,0.00,VWS V14.01,2013-03-01 01:18:00,
2013-02-28 18:23:00,61.9,19.2,27.58,WSW,248,9.2,9.2,19,0.00,,---,0.00,VWS V14.01,2013-03-01 01:23:00,
2013-02-28 18:28:00,61.7,19.0,27.58,NW,315,10.1,10.1,19,0.00,,---,0.00,VWS V14.01,2013-03-01 01:28:00,
2013-02-28 18:33:00,61.3,18.8,27.58,WNW,292,8.3,8.3,19,0.00,,---,0.00,VWS V14.01,2013-03-01 01:33:00,
2013-02-28 18:38:00,61.0,18.5,27.58,NW,315,3.6,7.6,19,0.00,,---,0.00,VWS V14.01,2013-03-01 01:38:00,
2013-02-28 18:43:00,60.6,18.2,27.58,WNW,292,0.0,7.6,19,0.00,,---,0.00,VWS V14.01,2013-03-01 01:43:00,
2013-02-28 18:49:00,60.4,18.0,27.58,WNW,292,4.9,5.4,19,0.00,,---,0.00,VWS V14.01,2013-03-01 01:49:00,
2013-02-28 18:54:00,60.1,17.7,27.58,West,270,4.9,4.9,19,0.00,,---,0.00,VWS V14.01,2013-03-01 01:54:00,
2013-02-28 18:59:00,59.9,17.6,27.58,NNW,338,5.4,6.7,19,0.00,,---,0.00,VWS V14.01,2013-03-01 01:59:00,
2013-02-28 19:04:00,59.7,17.4,27.58,WNW,292,3.6,3.6,19,0.00,,---,0.00,VWS V14.01,2013-03-01 02:04:00,
2013-02-28 19:09:00,59.7,17.4,27.58,West,270,4.9,5.8,19,0.00,,---,0.00,VWS V14.01,2013-03-01 02:09:00,
2013-02-28 19:14:00,59.4,17.1,27.61,WNW,292,8.1,8.1,19,0.00,,---,0.00,VWS V14.01,2013-03-01 02:14:00,
2013-02-28 19:19:00,59.2,17.0,27.61,West,270,7.2,8.1,19,0.00,,---,0.00,VWS V14.01,2013-03-01 02:19:00,
2013-02-28 19:24:00,59.0,16.8,27.61,WNW,292,8.1,8.1,19,0.00,,---,0.00,VWS V14.01,2013-03-01 02:24:00,
2013-02-28 19:29:00,58.6,16.5,27.61,West,270,3.6,8.1,19,0.00,,---,0.00,VWS V14.01,2013-03-01 02:29:00,
2013-02-28 19:34:00,58.6,16.5,27.61,WSW,248,4.0,4.0,19,0.00,,---,0.00,VWS V14.01,2013-03-01 02:34:00,
2013-02-28 19:39:00,58.5,16.4,27.61,North,0,5.8,8.3,19,0.00,,---,0.00,VWS V14.01,2013-03-01 02:39:00,
2013-02-28 19:45:00,58.1,16.1,27.61,NW,315,7.2,7.2,19,0.00,,---,0.00,VWS V14.01,2013-03-01 02:45:00,
2013-02-28 19:50:00,57.7,15.8,27.61,NNW,338,0.0,0.0,19,0.00,,---,0.00,VWS V14.01,2013-03-01 02:50:00,
2013-02-28 19:55:00,57.4,15.5,27.61,North,0,2.2,3.1,19,0.00,,---,0.00,VWS V14.01,2013-03-01 02:55:00,
2013-02-28 20:00:00,57.0,16.4,27.61,West,270,3.6,3.6,20,0.00,,---,0.00,VWS V14.01,2013-03-01 03:00:00,
2013-02-28 20:05:00,56.7,16.1,27.61,North,0,2.7,2.7,20,0.00,,---,0.00,VWS V14.01,2013-03-01 03:05:00,
2013-02-28 20:10:00,56.7,16.1,27.61,North,0,3.6,4.0,20,0.00,,---,0.00,VWS V14.01,2013-03-01 03:10:00,
2013-02-28 20:15:00,56.3,15.8,27.64,WNW,292,2.7,2.7,20,0.00,,---,0.00,VWS V14.01,2013-03-01 03:15:00,
2013-02-28 20:20:00,56.7,16.1,27.64,WNW,292,0.0,3.6,20,0.00,,---,0.00,VWS V14.01,2013-03-01 03:20:00,
2013-02-28 20:25:00,55.4,15.0,27.64,SE,135,0.0,0.0,20,0.00,,---,0.00,VWS V14.01,2013-03-01 03:25:00,
2013-02-28 20:31:00,54.5,14.3,27.64,SE,135,0.0,2.2,20,0.00,,---,0.00,VWS V14.01,2013-03-01 03:31:00,
2013-02-28 20:36:00,53.4,14.5,27.64,SE,135,0.0,0.0,21,0.00,,---,0.00,VWS V14.01,2013-03-01 03:36:00,
2013-02-28 20:41:00,53.1,14.2,27.64,SE,135,0.0,0.0,21,0.00,,---,0.00,VWS V14.01,2013-03-01 03:41:00,
2013-02-28 20:46:00,52.7,13.9,27.64,SE,135,0.0,0.0,21,0.00,,---,0.00,VWS V14.01,2013-03-01 03:46:00,
2013-02-28 20:51:00,51.8,13.1,27.64,SE,135,0.0,0.0,21,0.00,,---,0.00,VWS V14.01,2013-03-01 03:51:00,
2013-02-28 20:56:00,51.8,13.1,27.64,SE,135,0.0,0.0,21,0.00,,---,0.00,VWS V14.01,2013-03-01 03:56:00,
2013-02-28 21:01:00,50.7,12.2,27.64,SE,135,0.0,0.0,21,0.00,,---,0.00,VWS V14.01,2013-03-01 04:01:00,
2013-02-28 21:06:00,50.5,12.1,27.64,SE,135,0.0,0.0,21,0.00,,---,0.00,VWS V14.01,2013-03-01 04:06:00,
2013-02-28 21:11:00,50.2,11.8,27.64,SE,135,0.0,0.0,21,0.00,,---,0.00,VWS V14.01,2013-03-01 04:11:00,
2013-02-28 21:16:00,50.4,11.9,27.64,SE,135,0.0,0.0,21,0.00,,---,0.00,VWS V14.01,2013-03-01 04:16:00,
2013-02-28 21:22:00,49.6,11.3,27.64,SE,135,0.0,0.0,21,0.00,,---,0.00,VWS V14.01,2013-03-01 04:22:00,
2013-02-28 21:27:00,48.7,13.6,27.67,SE,135,0.0,0.0,24,0.00,,---,0.00,VWS V14.01,2013-03-01 04:27:00,
2013-02-28 21:32:00,48.6,13.4,27.67,SE,135,0.0,0.0,24,0.00,,---,0.00,VWS V14.01,2013-03-01 04:32:00,
2013-02-28 21:37:00,48.6,15.2,27.67,South,180,2.2,2.7,26,0.00,,---,0.00,VWS V14.01,2013-03-01 04:37:00,
2013-02-28 21:42:00,48.2,14.9,27.64,South,180,0.0,0.0,26,0.00,,---,0.00,VWS V14.01,2013-03-01 04:42:00,
2013-02-28 21:47:00,47.5,15.2,27.64,South,180,0.0,0.0,27,0.00,,---,0.00,VWS V14.01,2013-03-01 04:47:00,
2013-02-28 21:52:00,46.9,14.7,27.64,South,180,0.0,0.0,27,0.00,,---,0.00,VWS V14.01,2013-03-01 04:52:00,
2013-02-28 21:57:00,46.8,14.6,27.64,SE,135,0.0,0.0,27,0.00,,---,0.00,VWS V14.01,2013-03-01 04:57:00,
2013-02-28 22:00:00,46.4,14.2,27.64,SE,135,0.0,0.0,27,0.00,,---,0.00,VWS V14.01,2013-03-01 05:00:00,
2013-02-28 22:01:00,46.4,14.2,27.64,SE,135,0.0,0.0,27,0.00,,---,0.00,VWS V14.01,2013-03-01 05:01:00,
2013-02-28 22:06:00,45.9,14.6,27.64,SE,135,0.0,0.0,28,0.00,,---,0.00,VWS V14.01,2013-03-01 05:06:00,
2013-02-28 22:11:00,45.3,14.1,27.67,SE,135,0.0,0.0,28,0.00,,---,0.00,VWS V14.01,2013-03-01 05:11:00,
2013-02-28 22:16:00,45.3,14.9,27.67,SE,135,0.0,0.0,29,0.00,,---,0.00,VWS V14.01,2013-03-01 05:16:00,
2013-02-28 22:21:00,45.7,14.5,27.67,South,180,2.2,2.2,28,0.00,,---,0.00,VWS V14.01,2013-03-01 05:21:00,
2013-02-28 22:26:00,45.3,14.1,27.64,South,180,0.0,0.0,28,0.00,,---,0.00,VWS V14.01,2013-03-01 05:26:00,
2013-02-28 22:31:00,45.1,14.0,27.64,South,180,0.0,0.0,28,0.00,,---,0.00,VWS V14.01,2013-03-01 05:31:00,
2013-02-28 22:36:00,45.9,14.6,27.64,South,180,0.0,0.0,28,0.00,,---,0.00,VWS V14.01,2013-03-01 05:36:00,
2013-02-28 22:41:00,45.3,14.9,27.67,SE,135,0.0,2.7,29,0.00,,---,0.00,VWS V14.01,2013-03-01 05:41:00,
2013-02-28 22:46:00,45.9,14.6,27.67,SSE,158,0.0,0.0,28,0.00,,---,0.00,VWS V14.01,2013-03-01 05:46:00,
2013-02-28 22:52:00,45.5,14.3,27.67,SSE,158,2.2,2.2,28,0.00,,---,0.00,VWS V14.01,2013-03-01 05:52:00,
2013-02-28 22:57:00,45.9,14.6,27.64,SW,225,0.0,2.2,28,0.00,,---,0.00,VWS V14.01,2013-03-01 05:57:00,
2013-02-28 23:02:00,45.5,14.3,27.64,ESE,112,3.6,3.6,28,0.00,,---,0.00,VWS V14.01,2013-03-01 06:02:00,
2013-02-28 23:07:00,45.3,14.1,27.64,ESE,112,0.0,2.7,28,0.00,,---,0.00,VWS V14.01,2013-03-01 06:07:00,
2013-02-28 23:12:00,44.8,13.7,27.67,East,90,0.0,0.0,28,0.00,,---,0.00,VWS V14.01,2013-03-01 06:12:00,
2013-02-28 23:17:00,44.6,13.5,27.67,SSW,202,0.0,0.0,28,0.00,,---,0.00,VWS V14.01,2013-03-01 06:17:00,
2013-02-28 23:22:00,44.1,13.9,27.67,ESE,112,0.0,0.0,29,0.00,,---,0.00,VWS V14.01,2013-03-01 06:22:00,
2013-02-28 23:28:00,43.7,13.5,27.67,ESE,112,0.0,0.0,29,0.00,,---,0.00,VWS V14.01,2013-03-01 06:28:00,
2013-02-28 23:32:00,43.3,13.2,27.67,ESE,112,0.0,0.0,29,0.00,,---,0.00,VWS V14.01,2013-03-01 06:32:00,
2013-02-28 23:38:00,43.3,13.2,27.67,ESE,112,2.7,2.7,29,0.00,,---,0.00,VWS V14.01,2013-03-01 06:38:00,
2013-02-28 23:43:00,43.3,13.2,27.67,ESE,112,2.7,2.7,29,0.00,,---,0.00,VWS V14.01,2013-03-01 06:43:00,
2013-02-28 23:48:00,43.5,13.4,27.67,ESE,112,0.0,2.2,29,0.00,,---,0.00,VWS V14.01,2013-03-01 06:48:00,
2013-02-28 23:53:00,43.5,13.4,27.67,ESE,112,3.1,3.1,29,0.00,,---,0.00,VWS V14.01,2013-03-01 06:53:00,
2013-02-28 23:58:00,43.3,14.0,27.67,ESE,112,2.7,2.7,30,0.00,,---,0.00,VWS V14.01,2013-03-01 06:58:00,